Time,TemperatureF,DewpointF,PressureIn,WindDirection,WindDirectionDegrees,WindSpeedMPH,WindSpeedGustMPH,Humidity,HourlyPrecipIn,Conditions,Clouds,dailyrainin,SolarRadiationWatts/m^2,SoftwareType,DateUTC
2013-10-18 00:00:00,47.9,46.5,29.98,SSE,164,0.0,0.0,95,0.00,RA,RA,0.00,0.0,WeatherDisplay:10.37,2013-10-18 05:00:00,
2013-10-18 00:10:00,47.8,46.4,29.98,SSE,164,0.0,0.0,95,0.00,CLR,CLR,0.00,0.0,WeatherDisplay:10.37,2013-10-18 05:10:00,
2013-10-18 00:20:00,47.7,46.6,29.98,SSE,164,0.0,0.0,96,0.00,CLR,CLR,0.00,0.0,WeatherDisplay:10.37,2013-10-18 05:20:00,
2013-10-18 00:30:00,47.7,46.6,29.98,SSE,163,0.0,0.0,96,0.00,CLR,CLR,0.00,0.0,WeatherDisplay:10.37,2013-10-18 05:30:00,
2013-10-18 00:40:00,47.6,46.5,29.99,SSE,164,0.0,0.0,96,0.00,CLR,CLR,0.00,0.0,WeatherDisplay:10.37,2013-10-18 05:40:00,
2013-10-18 00:50:00,47.5,46.4,29.99,SSE,163,0.0,0.0,96,0.00,CLR,CLR,0.00,0.0,WeatherDisplay:10.37,2013-10-18 05:50:00,
2013-10-18 01:00:00,47.4,46.3,29.99,SSE,164,0.0,0.0,96,0.00,CLR,CLR,0.00,0.0,WeatherDisplay:10.37,2013-10-18 06:00:00,
2013-10-18 01:10:00,46.9,45.8,29.99,SSE,163,0.0,0.0,96,0.00,CLR,CLR,0.00,0.0,WeatherDisplay:10.37,2013-10-18 06:10:00,
2013-10-18 01:20:00,46.8,45.7,29.99,SSE,163,0.0,0.0,96,0.00,CLR,CLR,0.00,0.0,WeatherDisplay:10.37,2013-10-18 06:20:00,
2013-10-18 01:30:00,47.0,45.9,29.99,SSE,164,0.0,0.0,96,0.00,CLR,CLR,0.00,0.0,WeatherDisplay:10.37,2013-10-18 06:30:00,
2013-10-18 01:40:00,47.0,46.0,29.99,SSE,164,0.0,0.0,96,0.00,CLR,CLR,0.00,0.0,WeatherDisplay:10.37,2013-10-18 06:40:00,
2013-10-18 01:50:00,47.2,46.4,29.99,SSE,163,0.0,0.0,97,0.00,CLR,CLR,0.00,0.0,WeatherDisplay:10.37,2013-10-18 06:50:00,
2013-10-18 02:00:00,46.8,45.8,29.99,SSE,164,0.0,0.0,96,0.00,CLR,CLR,0.00,0.0,WeatherDisplay:10.37,2013-10-18 07:00:00,
2013-10-18 02:10:00,46.7,45.6,30.00,SSE,163,0.0,0.0,96,0.00,CLR,CLR,0.00,0.0,WeatherDisplay:10.37,2013-10-18 07:10:00,
2013-10-18 02:20:00,46.8,46.0,30.00,SSE,164,0.0,0.0,97,0.00,CLR,CLR,0.00,0.0,WeatherDisplay:10.37,2013-10-18 07:20:00,
2013-10-18 02:30:00,46.7,45.9,30.00,SSE,163,0.0,0.0,97,0.00,CLR,CLR,0.00,0.0,WeatherDisplay:10.37,2013-10-18 07:30:00,
2013-10-18 02:40:00,46.8,46.0,30.00,SSE,164,0.0,0.0,97,0.00,CLR,CLR,0.00,0.0,WeatherDisplay:10.37,2013-10-18 07:40:00,
2013-10-18 02:50:00,46.8,46.0,29.99,SSE,164,0.0,0.0,97,0.00,CLR,CLR,0.00,0.0,WeatherDisplay:10.37,2013-10-18 07:50:00,
2013-10-18 03:00:00,46.5,45.7,29.99,SSE,164,0.0,1.0,97,0.00,CLR,CLR,0.00,0.0,WeatherDisplay:10.37,2013-10-18 08:00:00,
2013-10-18 03:10:00,46.4,45.6,29.99,SSE,150,0.0,1.0,97,0.00,CLR,CLR,0.00,0.0,WeatherDisplay:10.37,2013-10-18 08:10:00,
2013-10-18 03:20:00,46.4,45.6,29.99,ESE,122,0.0,1.0,97,0.00,CLR,CLR,0.00,0.0,WeatherDisplay:10.37,2013-10-18 08:20:00,
2013-10-18 03:30:00,46.1,45.3,29.99,ESE,122,0.0,0.0,97,0.00,CLR,CLR,0.00,0.0,WeatherDisplay:10.37,2013-10-18 08:30:00,
2013-10-18 03:40:00,46.1,45.3,29.99,ESE,122,0.0,1.0,97,0.00,CLR,CLR,0.00,0.0,WeatherDisplay:10.37,2013-10-18 08:40:00,
2013-10-18 03:50:00,46.0,45.2,29.99,ESE,123,0.0,0.0,97,0.00,CLR,CLR,0.00,0.0,WeatherDisplay:10.37,2013-10-18 08:50:00,
2013-10-18 04:00:00,45.8,45.0,29.99,ESE,122,0.0,1.0,97,0.00,CLR,CLR,0.00,0.0,WeatherDisplay:10.37,2013-10-18 09:00:00,
2013-10-18 04:10:00,45.8,45.0,29.99,ESE,121,0.0,0.0,97,0.00,CLR,CLR,0.00,0.0,WeatherDisplay:10.37,2013-10-18 09:10:00,
2013-10-18 04:20:00,45.5,44.7,29.99,ESE,122,0.0,0.0,97,0.00,CLR,CLR,0.00,0.0,WeatherDisplay:10.37,2013-10-18 09:20:00,
2013-10-18 04:30:00,45.4,44.6,30.00,ESE,121,0.0,0.0,97,0.00,CLR,CLR,0.00,0.0,WeatherDisplay:10.37,2013-10-18 09:30:00,
2013-10-18 04:40:00,45.1,44.3,30.00,ESE,122,0.0,0.0,97,0.00,CLR,CLR,0.00,0.0,WeatherDisplay:10.37,2013-10-18 09:40:00,
2013-10-18 04:50:00,45.1,44.3,30.00,ESE,122,0.0,1.0,97,0.00,CLR,CLR,0.00,0.0,WeatherDisplay:10.37,2013-10-18 09:50:00,
2013-10-18 05:00:00,45.0,44.2,30.00,ESE,121,0.0,1.0,97,0.00,CLR,CLR,0.00,0.0,WeatherDisplay:10.37,2013-10-18 10:00:00,
2013-10-18 05:10:00,45.1,44.3,30.00,ESE,122,0.0,1.0,97,0.00,CLR,CLR,0.00,0.0,WeatherDisplay:10.37,2013-10-18 10:10:00,
2013-10-18 05:20:00,45.2,44.4,30.00,ESE,122,0.0,0.0,97,0.00,CLR,CLR,0.00,0.0,WeatherDisplay:10.37,2013-10-18 10:20:00,
2013-10-18 05:30:00,45.3,44.5,30.00,ESE,122,0.0,0.0,97,0.00,CLR,CLR,0.00,0.0,WeatherDisplay:10.37,2013-10-18 10:30:00,
2013-10-18 05:40:00,45.1,44.3,30.00,ESE,122,0.0,0.0,97,0.00,CLR,CLR,0.00,0.0,WeatherDisplay:10.37,2013-10-18 10:40:00,
2013-10-18 05:50:00,44.9,44.1,30.01,ESE,122,0.0,0.0,97,0.00,CLR,CLR,0.00,0.0,WeatherDisplay:10.37,2013-10-18 10:50:00,
2013-10-18 06:00:00,44.4,43.6,30.01,ESE,122,0.0,0.0,97,0.00,CLR,CLR,0.00,0.0,WeatherDisplay:10.37,2013-10-18 11:00:00,
2013-10-18 06:10:00,44.4,43.6,30.01,ESE,122,0.0,0.0,97,0.00,CLR,CLR,0.00,0.0,WeatherDisplay:10.37,2013-10-18 11:10:00,
2013-10-18 06:20:00,44.3,43.5,30.01,ESE,122,0.0,0.0,97,0.00,CLR,CLR,0.00,0.0,WeatherDisplay:10.37,2013-10-18 11:20:00,
2013-10-18 06:30:00,44.4,43.6,30.02,ESE,122,0.0,0.0,97,0.00,CLR,CLR,0.00,0.0,WeatherDisplay:10.37,2013-10-18 11:30:00,
2013-10-18 06:40:00,44.4,43.6,30.02,ESE,122,0.0,0.0,97,0.00,CLR,CLR,0.00,0.0,WeatherDisplay:10.37,2013-10-18 11:40:00,
2013-10-18 06:50:00,44.4,43.6,30.02,ESE,122,0.0,0.0,97,0.00,CLR,CLR,0.00,0.0,WeatherDisplay:10.37,2013-10-18 11:50:00,
2013-10-18 07:00:00,44.6,43.8,30.02,ESE,122,0.0,0.0,97,0.00,CLR,CLR,0.00,0.0,WeatherDisplay:10.37,2013-10-18 12:00:00,
2013-10-18 07:10:00,44.6,43.8,30.02,ESE,121,0.0,0.0,97,0.00,CLR,CLR,0.00,0.0,WeatherDisplay:10.37,2013-10-18 12:10:00,
2013-10-18 07:20:00,44.6,43.8,30.02,ESE,121,0.0,0.0,97,0.00,CLR,CLR,0.00,0.0,WeatherDisplay:10.37,2013-10-18 12:20:00,
2013-10-18 07:30:00,45.0,44.2,30.03,ESE,122,0.0,0.0,97,0.00,CLR,CLR,0.00,0.0,WeatherDisplay:10.37,2013-10-18 12:30:00,
2013-10-18 07:40:00,45.0,44.2,30.03,ESE,122,0.0,0.0,97,0.00,CLR,CLR,0.00,0.0,WeatherDisplay:10.37,2013-10-18 12:40:00,
2013-10-18 07:50:00,45.3,44.5,30.03,ESE,122,0.0,1.0,97,0.00,CLR,CLR,0.00,0.0,WeatherDisplay:10.37,2013-10-18 12:50:00,
2013-10-18 08:00:00,46.5,45.7,30.04,SE,131,0.0,1.0,97,0.00,CLR,CLR,0.00,0.0,WeatherDisplay:10.37,2013-10-18 13:00:00,
2013-10-18 08:10:00,47.7,46.9,30.04,SSW,204,0.0,2.0,97,0.00,CLR,CLR,0.00,0.0,WeatherDisplay:10.37,2013-10-18 13:10:00,
2013-10-18 08:20:00,48.7,47.9,30.04,SSE,155,1.0,2.0,97,0.00,CLR,CLR,0.00,0.0,WeatherDisplay:10.37,2013-10-18 13:20:00,
2013-10-18 08:30:00,49.3,48.5,30.04,SSW,198,1.0,3.0,97,0.00,CLR,CLR,0.00,0.0,WeatherDisplay:10.37,2013-10-18 13:30:00,
2013-10-18 08:40:00,50.1,49.3,30.05,SSW,208,0.0,1.0,97,0.01,RA,RA,0.01,0.0,WeatherDisplay:10.37,2013-10-18 13:40:00,
2013-10-18 08:50:00,51.7,50.6,30.05,South,176,1.0,2.0,96,0.00,CLR,CLR,0.01,0.0,WeatherDisplay:10.37,2013-10-18 13:50:00,
2013-10-18 09:00:00,52.8,51.1,30.05,SSW,208,0.0,2.0,94,0.00,CLR,CLR,0.01,0.0,WeatherDisplay:10.37,2013-10-18 14:00:00,
2013-10-18 09:10:00,54.4,52.4,30.05,SSW,207,1.0,2.0,93,0.00,CLR,CLR,0.01,0.0,WeatherDisplay:10.37,2013-10-18 14:10:00,
2013-10-18 09:20:00,55.4,52.5,30.05,SW,218,1.0,3.0,90,0.00,CLR,CLR,0.01,0.0,WeatherDisplay:10.37,2013-10-18 14:20:00,
2013-10-18 09:30:00,56.7,53.2,30.05,SW,225,0.0,2.0,88,0.00,CLR,CLR,0.01,0.0,WeatherDisplay:10.37,2013-10-18 14:30:00,
2013-10-18 09:40:00,58.2,53.4,30.05,SW,219,2.0,4.0,84,0.00,CLR,CLR,0.01,0.0,WeatherDisplay:10.37,2013-10-18 14:40:00,
2013-10-18 09:50:00,58.6,52.4,30.05,SSW,203,2.0,4.0,80,0.00,CLR,CLR,0.01,0.0,WeatherDisplay:10.37,2013-10-18 14:50:00,
2013-10-18 10:00:00,59.8,54.0,30.05,SW,225,1.0,5.0,81,0.00,CLR,CLR,0.01,0.0,WeatherDisplay:10.37,2013-10-18 15:00:00,
2013-10-18 10:10:00,60.7,54.2,30.05,SW,214,2.0,5.0,79,0.00,CLR,CLR,0.01,0.0,WeatherDisplay:10.37,2013-10-18 15:10:00,
2013-10-18 10:20:00,61.6,55.0,30.04,SW,221,2.0,5.0,79,0.00,CLR,CLR,0.01,0.0,WeatherDisplay:10.37,2013-10-18 15:20:00,
2013-10-18 10:30:00,61.9,53.5,30.04,SSW,194,2.0,4.0,74,0.00,CLR,CLR,0.01,0.0,WeatherDisplay:10.37,2013-10-18 15:30:00,
2013-10-18 10:40:00,62.6,53.4,30.04,SW,214,1.0,5.0,72,0.00,CLR,CLR,0.01,0.0,WeatherDisplay:10.37,2013-10-18 15:40:00,
2013-10-18 10:50:00,63.2,54.0,30.04,SW,221,1.0,7.0,72,0.00,CLR,CLR,0.01,0.0,WeatherDisplay:10.37,2013-10-18 15:50:00,
2013-10-18 11:00:00,64.1,54.1,30.04,SSW,195,1.0,5.0,70,0.00,CLR,CLR,0.01,0.0,WeatherDisplay:10.37,2013-10-18 16:00:00,
2013-10-18 11:10:00,65.3,53.7,30.03,SSW,206,2.0,5.0,66,0.00,CLR,CLR,0.01,0.0,WeatherDisplay:10.37,2013-10-18 16:10:00,
2013-10-18 11:20:00,65.8,53.7,30.03,SSW,208,1.0,5.0,65,0.00,CLR,CLR,0.01,0.0,WeatherDisplay:10.37,2013-10-18 16:20:00,
2013-10-18 11:30:00,66.2,51.4,30.03,SW,228,2.0,7.0,59,0.00,CLR,CLR,0.01,0.0,WeatherDisplay:10.37,2013-10-18 16:30:00,
2013-10-18 11:40:00,66.3,51.6,30.03,SW,231,1.0,7.0,59,0.00,CLR,CLR,0.01,0.0,WeatherDisplay:10.37,2013-10-18 16:40:00,
2013-10-18 11:50:00,66.3,50.6,30.02,WSW,245,2.0,6.0,57,0.00,CLR,CLR,0.01,0.0,WeatherDisplay:10.37,2013-10-18 16:50:00,
2013-10-18 12:00:00,67.7,52.3,30.02,SW,219,2.0,6.0,58,0.00,CLR,CLR,0.01,0.0,WeatherDisplay:10.37,2013-10-18 17:00:00,
2013-10-18 12:10:00,68.7,51.4,30.01,SW,221,1.0,7.0,54,0.00,CLR,CLR,0.01,0.0,WeatherDisplay:10.37,2013-10-18 17:10:00,
2013-10-18 12:20:00,67.9,50.6,30.01,SW,233,1.0,9.0,54,0.00,CLR,CLR,0.01,0.0,WeatherDisplay:10.37,2013-10-18 17:20:00,
2013-10-18 12:30:00,67.1,49.4,30.00,SW,214,1.0,7.0,53,0.00,CLR,CLR,0.01,0.0,WeatherDisplay:10.37,2013-10-18 17:30:00,
2013-10-18 12:40:00,68.1,50.9,30.00,West,271,2.0,6.0,54,0.00,SCT,SCT,0.01,0.0,WeatherDisplay:10.37,2013-10-18 17:40:00,
2013-10-18 12:50:00,68.1,50.3,29.99,SW,229,1.0,5.0,53,0.00,SCT,SCT,0.01,0.0,WeatherDisplay:10.37,2013-10-18 17:50:00,
2013-10-18 13:00:00,67.9,50.2,29.99,WNW,292,1.0,6.0,53,0.00,BKN,BKN,0.01,0.0,WeatherDisplay:10.37,2013-10-18 18:00:00,
2013-10-18 13:10:00,67.3,50.6,29.98,WNW,290,2.0,6.0,55,0.00,BKN,BKN,0.01,0.0,WeatherDisplay:10.37,2013-10-18 18:10:00,
2013-10-18 13:20:00,67.5,50.3,29.98,West,278,2.0,7.0,54,0.00,SCT,SCT,0.01,0.0,WeatherDisplay:10.37,2013-10-18 18:20:00,
2013-10-18 13:30:00,67.0,49.8,29.97,WSW,250,2.0,5.0,54,0.00,SCT,SCT,0.01,0.0,WeatherDisplay:10.37,2013-10-18 18:30:00,
2013-10-18 13:40:00,68.3,50.5,29.97,WSW,238,2.0,8.0,53,0.00,BKN,BKN,0.01,0.0,WeatherDisplay:10.37,2013-10-18 18:40:00,
2013-10-18 13:50:00,69.2,50.3,29.97,WSW,258,1.0,7.0,51,0.00,BKN,BKN,0.01,0.0,WeatherDisplay:10.37,2013-10-18 18:50:00,
2013-10-18 14:00:00,69.9,50.9,29.96,WSW,237,2.0,6.0,51,0.00,SCT,SCT,0.01,0.0,WeatherDisplay:10.37,2013-10-18 19:00:00,
2013-10-18 14:10:00,69.8,49.8,29.96,SSW,211,2.0,5.0,49,0.00,SCT,SCT,0.01,0.0,WeatherDisplay:10.37,2013-10-18 19:10:00,
2013-10-18 14:20:00,69.4,51.1,29.95,SSE,159,0.0,4.0,52,0.00,SCT,SCT,0.01,0.0,WeatherDisplay:10.37,2013-10-18 19:20:00,
2013-10-18 14:30:00,70.0,51.1,29.94,SW,216,1.0,6.0,51,0.00,SCT,SCT,0.01,0.0,WeatherDisplay:10.37,2013-10-18 19:30:00,
2013-10-18 14:40:00,70.5,49.3,29.94,SW,232,1.0,7.0,47,0.00,BKN,BKN,0.01,0.0,WeatherDisplay:10.37,2013-10-18 19:40:00,
2013-10-18 14:50:00,71.8,49.3,29.94,SSE,162,2.0,4.0,45,0.00,BKN,BKN,0.01,0.0,WeatherDisplay:10.37,2013-10-18 19:50:00,
2013-10-18 15:00:00,70.9,49.0,29.94,SSW,203,2.0,7.0,46,0.00,OVC,OVC,0.01,0.0,WeatherDisplay:10.37,2013-10-18 20:00:00,
2013-10-18 15:10:00,70.7,50.1,29.94,SW,226,1.0,5.0,48,0.00,OVC,OVC,0.01,0.0,WeatherDisplay:10.37,2013-10-18 20:10:00,
2013-10-18 15:20:00,69.2,49.2,29.94,West,262,2.0,3.0,49,0.00,SCT,SCT,0.01,0.0,WeatherDisplay:10.37,2013-10-18 20:20:00,
2013-10-18 15:30:00,70.5,49.9,29.93,WSW,258,2.0,7.0,48,0.00,SCT,SCT,0.01,0.0,WeatherDisplay:10.37,2013-10-18 20:30:00,
2013-10-18 15:40:00,72.0,51.2,29.93,WNW,285,0.0,5.0,48,0.00,CLR,CLR,0.01,0.0,WeatherDisplay:10.37,2013-10-18 20:40:00,
2013-10-18 15:50:00,70.9,50.2,29.92,NW,308,1.0,6.0,48,0.00,CLR,CLR,0.01,0.0,WeatherDisplay:10.37,2013-10-18 20:50:00,
2013-10-18 16:00:00,71.2,48.8,29.92,West,265,2.0,6.0,45,0.00,CLR,CLR,0.01,0.0,WeatherDisplay:10.37,2013-10-18 21:00:00,
2013-10-18 16:10:00,71.0,49.8,29.92,SW,219,1.0,4.0,47,0.00,CLR,CLR,0.01,0.0,WeatherDisplay:10.37,2013-10-18 21:10:00,
2013-10-18 16:20:00,70.2,49.1,29.92,SW,224,1.0,7.0,47,0.00,CLR,CLR,0.01,0.0,WeatherDisplay:10.37,2013-10-18 21:20:00,
2013-10-18 16:30:00,70.9,49.7,29.91,WSW,252,0.0,4.0,47,0.00,CLR,CLR,0.01,0.0,WeatherDisplay:10.37,2013-10-18 21:30:00,
2013-10-18 16:40:00,71.3,48.3,29.91,WNW,288,0.0,2.0,44,0.00,CLR,CLR,0.01,0.0,WeatherDisplay:10.37,2013-10-18 21:40:00,
2013-10-18 16:50:00,70.7,48.3,29.92,WNW,293,1.0,3.0,45,0.00,CLR,CLR,0.01,0.0,WeatherDisplay:10.37,2013-10-18 21:50:00,
2013-10-18 17:00:00,69.7,48.0,29.92,NW,309,2.0,5.0,46,0.00,FEW,FEW,0.01,0.0,WeatherDisplay:10.37,2013-10-18 22:00:00,
2013-10-18 17:10:00,68.7,48.2,29.92,NW,316,1.0,4.0,48,0.00,FEW,FEW,0.01,0.0,WeatherDisplay:10.37,2013-10-18 22:10:00,
2013-10-18 17:20:00,69.9,49.3,29.92,NW,308,0.0,2.0,48,0.00,BKN,BKN,0.01,0.0,WeatherDisplay:10.37,2013-10-18 22:20:00,
2013-10-18 17:30:00,69.8,49.3,29.92,WNW,283,1.0,4.0,48,0.00,BKN,BKN,0.01,0.0,WeatherDisplay:10.37,2013-10-18 22:30:00,
2013-10-18 17:40:00,68.8,49.4,29.93,WSW,258,0.0,3.0,50,0.00,SCT,SCT,0.01,0.0,WeatherDisplay:10.37,2013-10-18 22:40:00,
2013-10-18 17:50:00,67.6,49.3,29.93,WSW,243,1.0,4.0,52,0.00,SCT,SCT,0.01,0.0,WeatherDisplay:10.37,2013-10-18 22:50:00,
2013-10-18 18:00:00,66.2,49.6,29.93,SW,229,0.0,1.0,55,0.00,CLR,CLR,0.01,0.0,WeatherDisplay:10.37,2013-10-18 23:00:00,
2013-10-18 18:10:00,64.9,49.7,29.94,SW,228,0.0,1.0,58,0.00,CLR,CLR,0.01,0.0,WeatherDisplay:10.37,2013-10-18 23:10:00,
2013-10-18 18:20:00,64.0,49.8,29.94,SW,226,0.0,1.0,60,0.00,FEW,FEW,0.01,0.0,WeatherDisplay:10.37,2013-10-18 23:20:00,
2013-10-18 18:30:00,63.1,49.9,29.95,SW,226,0.0,0.0,62,0.00,FEW,FEW,0.01,0.0,WeatherDisplay:10.37,2013-10-18 23:30:00,
2013-10-18 18:40:00,62.3,50.0,29.95,SW,227,0.0,1.0,64,0.00,SCT,SCT,0.01,0.0,WeatherDisplay:10.37,2013-10-18 23:40:00,
2013-10-18 18:50:00,61.7,50.6,29.95,SW,228,0.0,0.0,67,0.00,SCT,SCT,0.01,0.0,WeatherDisplay:10.37,2013-10-18 23:50:00,
2013-10-18 19:00:00,61.1,50.1,29.95,SW,228,0.0,0.0,67,0.00,CLR,CLR,0.01,0.0,WeatherDisplay:10.37,2013-10-19 00:00:00,
2013-10-18 19:10:00,60.9,50.7,29.95,SW,228,0.0,0.0,69,0.00,CLR,CLR,0.01,0.0,WeatherDisplay:10.37,2013-10-19 00:10:00,
2013-10-18 19:20:00,60.6,51.2,29.94,SW,228,0.0,0.0,71,0.00,FEW,FEW,0.01,0.0,WeatherDisplay:10.37,2013-10-19 00:20:00,
2013-10-18 19:30:00,60.0,51.7,29.95,SW,228,0.0,1.0,74,0.00,FEW,FEW,0.01,0.0,WeatherDisplay:10.37,2013-10-19 00:30:00,
2013-10-18 19:40:00,59.5,51.6,29.95,SW,226,0.0,1.0,75,0.00,SCT,SCT,0.01,0.0,WeatherDisplay:10.37,2013-10-19 00:40:00,
2013-10-18 19:50:00,59.2,51.6,29.95,SSW,200,0.0,0.0,76,0.00,SCT,SCT,0.01,0.0,WeatherDisplay:10.37,2013-10-19 00:50:00,
2013-10-18 20:00:00,58.7,52.2,29.95,SSW,201,0.0,0.0,79,0.00,BKN,BKN,0.01,0.0,WeatherDisplay:10.37,2013-10-19 01:00:00,
2013-10-18 20:10:00,58.3,51.8,29.95,SSW,201,0.0,0.0,79,0.00,BKN,BKN,0.01,0.0,WeatherDisplay:10.37,2013-10-19 01:10:00,
2013-10-18 20:20:00,58.4,52.3,29.95,SSW,200,0.0,0.0,80,0.00,FEW,FEW,0.01,0.0,WeatherDisplay:10.37,2013-10-19 01:20:00,
2013-10-18 20:30:00,58.1,52.3,29.95,SSW,200,0.0,0.0,81,0.00,FEW,FEW,0.01,0.0,WeatherDisplay:10.37,2013-10-19 01:30:00,
2013-10-18 20:40:00,58.1,52.3,29.95,SSW,200,0.0,0.0,81,0.00,BKN,BKN,0.01,0.0,WeatherDisplay:10.37,2013-10-19 01:40:00,
2013-10-18 20:50:00,58.1,52.6,29.95,SSW,200,0.0,0.0,82,0.00,BKN,BKN,0.01,0.0,WeatherDisplay:10.37,2013-10-19 01:50:00,
2013-10-18 21:00:00,58.0,52.5,29.95,SSW,200,0.0,0.0,82,0.00,OVC,OVC,0.01,0.0,WeatherDisplay:10.37,2013-10-19 02:00:00,
2013-10-18 21:10:00,58.0,52.5,29.95,SSW,197,0.0,0.0,82,0.00,OVC,OVC,0.01,0.0,WeatherDisplay:10.37,2013-10-19 02:10:00,
2013-10-18 21:20:00,58.1,53.0,29.95,South,186,0.0,0.0,83,0.00,BKN,BKN,0.01,0.0,WeatherDisplay:10.37,2013-10-19 02:20:00,
2013-10-18 21:30:00,57.9,52.8,29.95,SSE,161,0.0,2.0,83,0.00,BKN,BKN,0.01,0.0,WeatherDisplay:10.37,2013-10-19 02:30:00,
2013-10-18 21:40:00,57.7,52.6,29.95,ESE,114,1.0,2.0,83,0.00,BKN,BKN,0.01,0.0,WeatherDisplay:10.37,2013-10-19 02:40:00,
2013-10-18 21:50:00,57.4,52.3,29.95,ESE,111,0.0,2.0,83,0.00,BKN,BKN,0.01,0.0,WeatherDisplay:10.37,2013-10-19 02:50:00,
2013-10-18 22:00:00,57.3,52.2,29.95,ESE,108,0.0,1.0,83,0.00,OVC,OVC,0.01,0.0,WeatherDisplay:10.37,2013-10-19 03:00:00,
2013-10-18 22:10:00,57.3,52.1,29.94,ESE,108,0.0,1.0,83,0.00,OVC,OVC,0.01,0.0,WeatherDisplay:10.37,2013-10-19 03:10:00,
2013-10-18 22:20:00,57.1,52.0,29.95,ESE,108,0.0,1.0,83,0.00,OVC,OVC,0.01,0.0,WeatherDisplay:10.37,2013-10-19 03:20:00,
2013-10-18 22:30:00,56.9,52.4,29.95,ESE,108,0.0,1.0,85,0.00,OVC,OVC,0.01,0.0,WeatherDisplay:10.37,2013-10-19 03:30:00,
2013-10-18 22:40:00,56.7,52.6,29.95,ESE,108,0.0,0.0,86,0.00,OVC,OVC,0.01,0.0,WeatherDisplay:10.37,2013-10-19 03:40:00,
2013-10-18 22:50:00,56.6,52.1,29.94,ESE,108,0.0,0.0,85,0.00,OVC,OVC,0.01,0.0,WeatherDisplay:10.37,2013-10-19 03:50:00,
2013-10-18 23:00:00,56.7,52.2,29.94,ESE,108,0.0,0.0,85,0.00,OVC,OVC,0.01,0.0,WeatherDisplay:10.37,2013-10-19 04:00:00,
2013-10-18 23:10:00,56.7,52.2,29.94,ESE,108,0.0,0.0,85,0.00,OVC,OVC,0.01,0.0,WeatherDisplay:10.37,2013-10-19 04:10:00,
2013-10-18 23:20:00,56.9,52.8,29.93,ESE,108,0.0,0.0,86,0.00,OVC,OVC,0.01,0.0,WeatherDisplay:10.37,2013-10-19 04:20:00,
2013-10-18 23:30:00,57.1,52.3,29.94,SE,143,0.0,1.0,84,0.00,OVC,OVC,0.01,0.0,WeatherDisplay:10.37,2013-10-19 04:30:00,
2013-10-18 23:40:00,57.1,52.6,29.93,SSE,150,0.0,0.0,85,0.00,OVC,OVC,0.01,0.0,WeatherDisplay:10.37,2013-10-19 04:40:00,
2013-10-18 23:50:00,57.0,52.9,29.93,SSE,149,0.0,0.0,86,0.00,OVC,OVC,0.01,0.0,WeatherDisplay:10.37,2013-10-19 04:50:00,